createdAt,value
2022-12-11T00:00:13.775Z,6.80
2022-12-11T00:03:18.296Z,7.20
2022-12-11T00:06:25.265Z,7.78
2022-12-11T00:09:29.689Z,7.68
2022-12-11T00:12:34.443Z,7.20
2022-12-11T00:15:40.553Z,7.03
2022-12-11T00:18:43.298Z,7.80
2022-12-11T00:21:47.594Z,7.63
2022-12-11T00:24:52.595Z,6.57
2022-12-11T00:27:56.600Z,7.57
2022-12-11T00:30:59.427Z,7.13
2022-12-11T00:34:04.562Z,7.68
2022-12-11T00:37:09.055Z,7.18
2022-12-11T00:40:13.694Z,7.30
2022-12-11T00:43:17.821Z,8.23
2022-12-11T00:46:20.711Z,8.10
2022-12-11T00:49:24.783Z,7.30
2022-12-11T00:52:27.510Z,7.47
2022-12-11T00:55:33.109Z,7.40
2022-12-11T00:58:35.847Z,7.20
2022-12-11T01:01:40.243Z,7.27
2022-12-11T01:04:43.142Z,7.20
2022-12-11T01:07:47.367Z,7.93
2022-12-11T01:10:51.553Z,7.47
2022-12-11T01:17:17.082Z,7.30
2022-12-11T01:20:20.691Z,6.95
2022-12-11T01:23:24.793Z,8.30
2022-12-11T01:26:29.683Z,7.93
2022-12-11T01:29:34.405Z,7.87
2022-12-11T01:32:38.719Z,7.77
2022-12-11T01:35:42.025Z,8.02
2022-12-11T01:38:46.427Z,7.93
2022-12-11T01:41:50.576Z,7.65
2022-12-11T01:45:39.914Z,7.53
2022-12-11T01:48:44.016Z,7.70
2022-12-11T01:51:52.517Z,7.50
2022-12-11T01:54:56.604Z,8.23
2022-12-11T01:58:01.679Z,8.13
2022-12-11T02:01:05.930Z,7.50
2022-12-11T02:04:12.219Z,7.50
2022-12-11T02:07:15.022Z,8.00
2022-12-11T02:10:19.593Z,7.97
2022-12-11T02:13:31.561Z,7.07
2022-12-11T02:16:44.247Z,8.03
2022-12-11T02:20:00.317Z,8.50
2022-12-11T02:23:36.238Z,7.72
2022-12-11T02:27:02.096Z,7.95
2022-12-11T02:30:10.670Z,7.28
2022-12-11T02:33:16.329Z,7.07
2022-12-11T02:36:24.862Z,7.90
2022-12-11T02:39:29.687Z,8.68
2022-12-11T02:42:35.988Z,8.82
2022-12-11T02:49:07.025Z,7.53
2022-12-11T02:52:15.179Z,7.43
2022-12-11T02:55:19.047Z,7.13
2022-12-11T02:58:26.473Z,7.03
2022-12-11T03:01:31.987Z,7.57
2022-12-11T03:04:37.387Z,7.43
2022-12-11T03:07:44.419Z,7.10
2022-12-11T03:10:48.721Z,7.50
2022-12-11T03:13:51.662Z,7.65
2022-12-11T03:17:00.821Z,7.45
2022-12-11T03:20:12.405Z,7.17
2022-12-11T03:23:23.442Z,6.93
2022-12-11T03:26:26.517Z,6.82
2022-12-11T03:36:32.684Z,7.73
2022-12-11T03:39:42.014Z,6.83
2022-12-11T03:42:48.004Z,7.70
2022-12-11T03:45:53.529Z,6.80
2022-12-11T03:49:01.539Z,7.32
2022-12-11T03:52:05.654Z,8.07
2022-12-11T03:55:11.789Z,7.03
2022-12-11T03:58:14.767Z,8.13
2022-12-11T04:01:18.922Z,7.68
2022-12-11T04:04:24.447Z,7.35
2022-12-11T04:07:27.268Z,8.00
2022-12-11T04:10:31.321Z,7.80
2022-12-11T04:13:34.114Z,7.47
2022-12-11T04:16:37.334Z,7.60
2022-12-11T04:20:07.247Z,7.50
2022-12-11T04:23:32.834Z,6.70
2022-12-11T04:26:36.914Z,7.63
2022-12-11T04:29:39.821Z,7.88
2022-12-11T04:32:44.265Z,8.30
2022-12-11T04:35:49.637Z,7.10
2022-12-11T04:38:52.410Z,8.10
2022-12-11T04:41:56.500Z,7.43
2022-12-11T04:44:59.179Z,7.85
2022-12-11T04:48:03.284Z,7.90
2022-12-11T04:51:09.572Z,7.60
2022-12-11T04:54:12.291Z,7.87
2022-12-11T04:57:16.535Z,7.33
2022-12-11T05:00:19.588Z,7.57
2022-12-11T05:03:23.982Z,7.43
2022-12-11T05:06:28.087Z,7.47
2022-12-11T05:09:32.104Z,7.07
2022-12-11T05:12:36.209Z,7.53
2022-12-11T05:15:40.869Z,7.90
2022-12-11T05:18:45.549Z,7.55
2022-12-11T05:21:50.941Z,7.60
2022-12-11T05:24:53.656Z,7.83
2022-12-11T05:27:57.752Z,7.67
2022-12-11T05:31:02.463Z,7.22
2022-12-11T05:34:06.605Z,6.80
2022-12-11T05:37:13.712Z,7.65
2022-12-11T05:40:16.617Z,7.63
2022-12-11T05:43:20.572Z,7.47
2022-12-11T05:46:25.444Z,7.10
2022-12-11T05:49:30.998Z,6.75
2022-12-11T05:52:35.513Z,7.88
2022-12-11T05:55:38.444Z,7.27
2022-12-11T06:02:04.391Z,6.85
2022-12-11T06:05:08.040Z,7.20
2022-12-11T06:08:13.524Z,7.43
2022-12-11T06:11:20.934Z,6.83
2022-12-11T06:14:27.831Z,7.03
2022-12-11T06:17:30.552Z,6.88
2022-12-11T06:20:35.537Z,6.25
2022-12-11T06:23:40.871Z,6.78
2022-12-11T06:26:43.568Z,7.17
2022-12-11T06:29:49.124Z,6.30
2022-12-11T06:32:53.264Z,6.75
2022-12-11T06:35:57.944Z,7.20
2022-12-11T06:39:03.314Z,6.25
2022-12-11T06:42:06.245Z,6.57
2022-12-11T06:45:11.420Z,6.00
2022-12-11T06:48:15.538Z,7.15
2022-12-11T06:51:19.935Z,6.13
2022-12-11T06:54:28.348Z,6.55
2022-12-11T06:57:32.326Z,6.67
2022-12-11T07:00:37.428Z,5.87
2022-12-11T07:03:41.464Z,6.57
2022-12-11T07:06:44.320Z,5.72
2022-12-11T07:09:50.219Z,5.78
2022-12-11T07:12:54.059Z,5.70
2022-12-11T07:15:59.858Z,5.93
2022-12-11T07:19:03.888Z,5.72
2022-12-11T07:22:06.590Z,5.20
2022-12-11T07:25:12.869Z,5.13
2022-12-11T07:28:16.909Z,5.83
2022-12-11T07:31:23.187Z,5.10
2022-12-11T07:34:27.452Z,5.40
2022-12-11T07:37:30.177Z,5.65
2022-12-11T07:40:35.917Z,5.45
2022-12-11T07:43:38.671Z,5.77
2022-12-11T07:46:43.137Z,5.70
2022-12-11T07:49:45.848Z,5.78
2022-12-11T07:52:48.945Z,5.07
2022-12-11T07:55:53.019Z,4.88
2022-12-11T07:58:57.498Z,5.77
2022-12-11T08:02:01.779Z,5.60
2022-12-11T08:05:04.671Z,5.20
2022-12-11T08:08:08.932Z,5.75
2022-12-11T08:11:15.301Z,6.35
2022-12-11T08:14:18.356Z,5.90
2022-12-11T08:17:25.859Z,5.83
2022-12-11T08:20:31.759Z,5.57
2022-12-11T08:23:34.561Z,7.13
2022-12-11T08:26:38.860Z,6.85
2022-12-11T08:29:41.862Z,6.70
2022-12-11T08:32:44.593Z,5.37
2022-12-11T08:35:48.597Z,5.78
2022-12-11T08:38:53.441Z,5.15
2022-12-11T08:41:58.017Z,5.38
2022-12-11T08:45:01.987Z,6.07
2022-12-11T08:48:05.220Z,6.47
2022-12-11T08:51:10.251Z,5.70
2022-12-11T08:54:13.162Z,4.97
2022-12-11T08:57:18.502Z,5.68
2022-12-11T09:00:22.729Z,5.00
2022-12-11T09:03:26.833Z,5.63
2022-12-11T09:06:31.591Z,5.80
2022-12-11T09:09:35.704Z,5.00
2022-12-11T09:12:39.806Z,4.97
2022-12-11T09:15:43.914Z,6.00
2022-12-11T09:18:50.268Z,5.43
2022-12-11T09:21:52.950Z,5.55
2022-12-11T09:24:56.939Z,6.15
2022-12-11T09:28:01.421Z,5.70
2022-12-11T09:31:11.166Z,6.00
2022-12-11T09:34:16.359Z,5.67
2022-12-11T09:37:19.124Z,6.18
2022-12-11T09:43:51.841Z,6.53
2022-12-11T09:46:54.633Z,6.40
2022-12-11T09:50:07.485Z,6.37
2022-12-11T09:53:16.777Z,5.60
2022-12-11T09:56:27.736Z,5.82
2022-12-11T09:59:38.528Z,5.75
2022-12-11T10:03:10.057Z,6.17
2022-12-11T10:06:20.348Z,6.20
2022-12-11T10:09:31.045Z,5.97
2022-12-11T10:12:43.651Z,6.10
2022-12-11T10:15:54.067Z,6.20
2022-12-11T10:18:58.450Z,5.80
2022-12-11T10:22:03.795Z,6.03
2022-12-11T10:25:11.814Z,5.70
2022-12-11T10:28:18.132Z,6.05
2022-12-11T10:31:33.296Z,6.60
2022-12-11T10:34:42.358Z,7.17
2022-12-11T10:37:45.053Z,7.33
2022-12-11T10:44:19.499Z,7.00
2022-12-11T10:47:23.696Z,6.53
2022-12-11T10:50:28.707Z,7.23
2022-12-11T10:53:32.768Z,6.23
2022-12-11T11:00:03.075Z,7.35
2022-12-11T11:03:21.107Z,7.60
2022-12-11T11:06:26.416Z,9.40
2022-12-11T11:09:31.505Z,8.37
2022-12-11T11:12:40.597Z,7.82
2022-12-11T11:15:45.211Z,7.57
2022-12-11T11:18:54.911Z,6.15
2022-12-11T11:25:24.463Z,5.37
2022-12-11T11:28:31.446Z,6.10
2022-12-11T11:31:37.999Z,6.10
2022-12-11T11:34:43.139Z,6.05
2022-12-11T11:37:49.094Z,8.70
2022-12-11T11:41:04.859Z,7.70
2022-12-11T11:44:14.920Z,6.85
2022-12-11T11:47:25.175Z,6.65
2022-12-11T11:50:35.695Z,6.00
2022-12-11T11:53:42.803Z,6.20
2022-12-11T11:56:46.131Z,6.27
2022-12-11T11:59:53.191Z,6.35
2022-12-11T12:03:00.632Z,6.10
2022-12-11T12:06:15.385Z,6.45
2022-12-11T12:09:29.017Z,5.97
2022-12-11T12:12:44.612Z,7.50
2022-12-11T12:15:56.577Z,7.10
2022-12-11T12:19:12.581Z,6.53
2022-12-11T12:22:30.016Z,6.00
2022-12-11T12:25:39.970Z,5.50
2022-12-11T12:28:51.853Z,5.70
2022-12-11T12:32:10.751Z,6.03
2022-12-11T12:35:31.148Z,6.00
2022-12-11T12:38:45.211Z,5.93
2022-12-11T12:42:01.275Z,5.47
2022-12-11T12:45:17.855Z,5.10
2022-12-11T12:48:23.809Z,6.28
2022-12-11T12:51:28.038Z,5.57
2022-12-11T12:54:35.615Z,5.93
2022-12-11T12:57:41.432Z,5.60
2022-12-11T13:00:45.214Z,5.47
2022-12-11T13:03:56.150Z,5.82
2022-12-11T13:06:59.331Z,6.10
2022-12-11T13:10:25.081Z,6.00
2022-12-11T13:13:34.726Z,6.27
2022-12-11T13:16:40.424Z,5.53
2022-12-11T13:19:44.546Z,5.05
2022-12-11T13:22:57.895Z,5.68
2022-12-11T13:26:05.032Z,5.47
2022-12-11T13:29:27.857Z,5.87
2022-12-11T13:32:33.963Z,5.73
2022-12-11T13:35:38.079Z,7.25
2022-12-11T13:38:47.942Z,7.25
2022-12-11T13:41:56.478Z,6.65
2022-12-11T13:45:00.247Z,7.63
2022-12-11T13:48:07.723Z,6.53
2022-12-11T13:51:19.650Z,6.47
2022-12-11T13:54:22.730Z,9.05
2022-12-11T13:57:29.633Z,7.13
2022-12-11T14:00:33.788Z,7.37
2022-12-11T14:07:03.685Z,6.82
2022-12-11T14:10:10.890Z,6.47
2022-12-11T14:13:23.389Z,6.65
2022-12-11T14:16:28.039Z,6.27
2022-12-11T14:19:33.688Z,6.83
2022-12-11T14:22:36.680Z,6.97
2022-12-11T14:25:40.742Z,6.55
2022-12-11T14:28:45.972Z,6.93
2022-12-11T14:31:48.837Z,7.17
2022-12-11T14:34:55.517Z,6.97
2022-12-11T14:38:03.038Z,6.78
2022-12-11T14:41:15.421Z,7.57
2022-12-11T14:44:22.147Z,6.85
2022-12-11T14:47:29.821Z,7.70
2022-12-11T14:50:40.683Z,6.93
2022-12-11T14:53:49.003Z,7.20
2022-12-11T14:56:52.049Z,5.97
2022-12-11T14:59:58.696Z,6.50
2022-12-11T15:03:04.381Z,6.80
2022-12-11T15:06:25.722Z,6.33
2022-12-11T15:09:38.480Z,7.35
2022-12-11T15:12:45.547Z,6.75
2022-12-11T15:15:50.256Z,6.70
2022-12-11T15:18:56.962Z,6.97
2022-12-11T15:22:05.309Z,6.77
2022-12-11T15:25:20.220Z,7.13
2022-12-11T15:28:31.540Z,7.05
2022-12-11T15:35:01.159Z,6.03
2022-12-11T15:38:05.445Z,6.20
2022-12-11T15:41:16.754Z,5.78
2022-12-11T15:44:23.549Z,6.00
2022-12-11T15:47:29.288Z,6.82
2022-12-11T15:50:32.019Z,6.03
2022-12-11T15:53:37.836Z,6.20
2022-12-11T15:56:40.671Z,6.07
2022-12-11T15:59:44.890Z,5.30
2022-12-11T16:02:49.657Z,5.50
2022-12-11T16:05:55.492Z,5.80
2022-12-11T16:08:59.707Z,5.53
2022-12-11T16:12:03.774Z,6.53
2022-12-11T16:15:07.519Z,6.15
2022-12-11T16:18:13.470Z,6.03
2022-12-11T16:21:21.440Z,6.20
2022-12-11T16:24:26.075Z,6.23
2022-12-11T16:27:30.138Z,6.25
2022-12-11T16:30:33.104Z,6.75
2022-12-11T16:33:35.993Z,6.40
2022-12-11T16:36:40.272Z,6.20
2022-12-11T16:39:47.160Z,5.80
2022-12-11T16:42:51.578Z,6.63
2022-12-11T16:45:55.800Z,6.28
2022-12-11T16:48:59.825Z,6.47
2022-12-11T16:52:03.766Z,6.63
2022-12-11T16:55:09.303Z,7.77
2022-12-11T16:58:17.482Z,8.02
2022-12-11T17:01:20.306Z,8.07
2022-12-11T17:04:24.437Z,9.52
2022-12-11T17:07:28.489Z,8.80
2022-12-11T17:10:32.647Z,8.93
2022-12-11T17:13:37.394Z,7.78
2022-12-11T17:16:43.776Z,7.63
2022-12-11T17:19:48.141Z,8.07
2022-12-11T17:22:52.171Z,7.03
2022-12-11T17:25:56.332Z,7.47
2022-12-11T17:29:00.369Z,6.40
2022-12-11T17:32:03.610Z,6.68
2022-12-11T17:35:09.145Z,8.63
2022-12-11T17:38:13.462Z,6.40
2022-12-11T17:41:20.667Z,6.73
2022-12-11T17:44:25.429Z,7.55
2022-12-11T17:47:28.255Z,7.18
2022-12-11T17:53:54.427Z,7.13
2022-12-11T17:56:58.585Z,7.70
2022-12-11T18:00:02.969Z,6.88
2022-12-11T18:03:05.682Z,6.75
2022-12-11T18:06:13.205Z,6.25
2022-12-11T18:09:17.213Z,6.93
2022-12-11T18:12:21.329Z,7.27
2022-12-11T18:15:25.324Z,6.85
2022-12-11T18:18:29.360Z,7.28
2022-12-11T18:21:40.536Z,7.15
2022-12-11T18:24:44.494Z,7.57
2022-12-11T18:27:48.915Z,6.67
2022-12-11T18:30:53.142Z,7.13
2022-12-11T18:33:57.362Z,6.97
2022-12-11T18:37:00.136Z,7.30
2022-12-11T18:43:26.071Z,6.90
2022-12-11T18:46:30.111Z,6.90
2022-12-11T18:49:34.190Z,6.90
2022-12-11T18:52:36.939Z,6.15
2022-12-11T18:55:43.861Z,6.80
2022-12-11T18:58:48.925Z,5.63
2022-12-11T19:01:53.015Z,6.40
2022-12-11T19:04:57.132Z,6.22
2022-12-11T19:07:59.902Z,5.73
2022-12-11T19:11:03.973Z,6.03
2022-12-11T19:14:08.649Z,6.68
2022-12-11T19:17:12.673Z,5.45
2022-12-11T19:20:47.355Z,6.90
2022-12-11T19:23:40.060Z,6.37
2022-12-11T19:26:44.570Z,6.45
2022-12-11T19:29:49.052Z,6.63
2022-12-11T19:32:53.141Z,6.63
2022-12-11T19:36:03.987Z,6.90
2022-12-11T19:39:12.559Z,6.60
2022-12-11T19:45:40.645Z,6.68
2022-12-11T19:48:43.873Z,5.95
2022-12-11T19:51:48.293Z,6.25
2022-12-11T19:54:51.103Z,6.07
2022-12-11T19:57:58.125Z,6.82
2022-12-11T20:01:04.131Z,6.80
2022-12-11T20:04:10.173Z,6.97
2022-12-11T20:07:15.045Z,6.65
2022-12-11T20:10:18.040Z,7.33
2022-12-11T20:13:23.258Z,7.10
2022-12-11T20:16:53.816Z,6.75
2022-12-11T20:19:51.957Z,6.47
2022-12-11T20:22:57.609Z,6.82
2022-12-11T20:26:00.480Z,7.03
2022-12-11T20:29:06.659Z,7.30
2022-12-11T20:32:13.472Z,7.28
2022-12-11T20:35:16.542Z,8.02
2022-12-11T20:38:22.162Z,7.72
2022-12-11T20:41:26.605Z,7.03
2022-12-11T20:44:30.714Z,7.43
2022-12-11T20:51:00.707Z,7.28
2022-12-11T20:54:04.797Z,7.55
2022-12-11T20:57:08.978Z,7.00
2022-12-11T21:00:13.325Z,7.70
2022-12-11T21:03:18.935Z,6.40
2022-12-11T21:06:25.282Z,7.15
2022-12-11T21:09:30.536Z,7.07
2022-12-11T21:12:34.592Z,7.03
2022-12-11T21:15:37.875Z,7.10
2022-12-11T21:18:47.638Z,7.13
2022-12-11T21:21:56.041Z,7.15
2022-12-11T21:25:01.803Z,7.85
2022-12-11T21:28:06.658Z,6.47
2022-12-11T21:31:14.322Z,7.45
2022-12-11T21:34:25.578Z,7.82
2022-12-11T21:37:31.064Z,7.72
2022-12-11T21:40:35.368Z,8.02
2022-12-11T21:43:52.583Z,6.77
2022-12-11T21:47:02.395Z,7.25
2022-12-11T21:50:08.565Z,7.50
2022-12-11T21:53:11.333Z,7.53
2022-12-11T21:56:19.995Z,8.73
2022-12-11T22:02:44.818Z,7.72
2022-12-11T22:05:50.308Z,8.75
2022-12-11T22:08:54.426Z,7.35
2022-12-11T22:12:00.658Z,7.50
2022-12-11T22:15:05.509Z,7.47
2022-12-11T22:18:08.336Z,7.45
2022-12-11T22:21:16.996Z,7.63
2022-12-11T22:27:41.652Z,7.72
2022-12-11T22:30:46.269Z,8.20
2022-12-11T22:33:50.471Z,7.55
2022-12-11T22:36:59.999Z,7.45
2022-12-11T22:40:04.074Z,7.63
2022-12-11T22:43:06.883Z,8.27
2022-12-11T22:46:16.551Z,7.03
2022-12-11T22:49:20.416Z,8.35
2022-12-11T22:52:26.008Z,7.07
2022-12-11T22:55:28.784Z,8.27
2022-12-11T22:58:32.757Z,7.30
2022-12-11T23:01:35.723Z,7.40
2022-12-11T23:04:39.806Z,7.22
2022-12-11T23:11:11.736Z,7.75
2022-12-11T23:14:18.163Z,7.85
2022-12-11T23:17:20.890Z,7.37
2022-12-11T23:20:24.940Z,8.02
2022-12-11T23:23:30.737Z,8.15
2022-12-11T23:26:34.178Z,7.35
2022-12-11T23:29:38.221Z,7.82
2022-12-11T23:32:41.006Z,6.87
2022-12-11T23:39:08.553Z,7.40
2022-12-11T23:42:11.309Z,7.53
2022-12-11T23:45:15.609Z,7.85
2022-12-11T23:48:19.811Z,7.73
2022-12-11T23:51:24.716Z,7.50
2022-12-11T23:54:30.172Z,7.65
2022-12-11T23:57:33.080Z,7.07
